Buhara, Uzbekistan
Current Conditions -  °F | °C
As of 2:30 PM on Wednesday 22 Oct 2014 (Local Time) from UTSB Reporting Station
Clear Clear  
Wind Chill: 81°   Ceiling: Unl
Heat Index: 81°   Visibility: 6mi
Dew Point: 50°   Wind: 7mph
Humidity: 34%   Direction: 270°W
Pressure: 29.8"   Gusts: NA
Location:  39.72°N, 64.62°E
Report Text: UTSB 220930Z 27003MPS CAVOK 27/10 Q1009 R01/CLRD70 NOSIG
Loading
Personal Weather Stations






























Interactive Weather Map
Tropical Storm Tracking
New forecast layout! Learn more

10-Day Weather Forecast

Advertisements
Track Severe Weather on mobile